EZY116 EDDW-EHAM
Flight info
| Callsign | EZY116 |
|---|---|
| Flight time | 0h 42m |
| Altitude | 20000 |
| Route | OKWEL1L OKWEL N125 BLUFA |
| Aircraft | A320/M-SDE3FGHIRWY/LB1 |
Departure
| Time | 2026-05-04 09:46 |
|---|---|
| Airport | Bremen Airport (EDDW) |
Arrival
| Time | 2026-05-04 10:28 |
|---|---|
| Airport | Amsterdam Airport Schiphol (EHAM) |
| Time | Latitude | Longitude | Altitude | Speed | Heading |
|---|---|---|---|---|---|
| 2026-05-04 09:14 | 53.05138 | 8.78588 | 25 ft | 0 kts | 49° |
| 2026-05-04 09:34 | 53.05115 | 8.78457 | 23 ft | 0 kts | 139° |
| 2026-05-04 09:37 | 53.05013 | 8.78625 | 22 ft | 5 kts | 113° |
| 2026-05-04 09:37 | 53.04997 | 8.78697 | 23 ft | 11 kts | 115° |
| 2026-05-04 09:38 | 53.04929 | 8.78818 | 22 ft | 14 kts | 142° |
| 2026-05-04 09:38 | 53.04861 | 8.78928 | 20 ft | 14 kts | 111° |
| 2026-05-04 09:38 | 53.04860 | 8.79104 | 21 ft | 19 kts | 89° |
| 2026-05-04 09:38 | 53.04866 | 8.79340 | 23 ft | 22 kts | 86° |
| 2026-05-04 09:39 | 53.04871 | 8.79601 | 23 ft | 23 kts | 88° |
| 2026-05-04 09:39 | 53.04878 | 8.79881 | 23 ft | 25 kts | 88° |
| 2026-05-04 09:39 | 53.04884 | 8.80186 | 22 ft | 27 kts | 88° |
| 2026-05-04 09:39 | 53.04875 | 8.80418 | 20 ft | 17 kts | 120° |
| 2026-05-04 09:40 | 53.04830 | 8.80460 | 19 ft | 0 kts | 172° |
| 2026-05-04 09:44 | 53.04815 | 8.80463 | 19 ft | 7 kts | 174° |
| 2026-05-04 09:46 | 53.04588 | 8.74305 | 1454 ft | 165 kts | 268° |
| 2026-05-04 09:46 | 53.04514 | 8.72309 | 1891 ft | 184 kts | 268° |
| 2026-05-04 09:46 | 53.04477 | 8.70098 | 2392 ft | 196 kts | 273° |
| 2026-05-04 09:47 | 53.04996 | 8.68034 | 2892 ft | 210 kts | 312° |
| 2026-05-04 09:47 | 53.06385 | 8.66893 | 3305 ft | 242 kts | 347° |
| 2026-05-04 09:49 | 53.18342 | 8.61129 | 9566 ft | 276 kts | 317° |
| 2026-05-04 09:49 | 53.19831 | 8.59057 | 10333 ft | 286 kts | 316° |
| 2026-05-04 09:49 | 53.21423 | 8.56835 | 10658 ft | 310 kts | 317° |
| 2026-05-04 09:51 | 53.23886 | 8.36256 | 14836 ft | 337 kts | 252° |
| 2026-05-04 09:51 | 53.23189 | 8.32569 | 15571 ft | 339 kts | 252° |
| 2026-05-04 09:51 | 53.22472 | 8.28806 | 16295 ft | 341 kts | 252° |
| 2026-05-04 09:51 | 53.21747 | 8.25023 | 17015 ft | 344 kts | 252° |
| 2026-05-04 09:52 | 53.21019 | 8.21206 | 17728 ft | 346 kts | 251° |
| 2026-05-04 09:52 | 53.20285 | 8.17364 | 18403 ft | 350 kts | 252° |
| 2026-05-04 09:52 | 53.19542 | 8.13484 | 18989 ft | 352 kts | 252° |
| 2026-05-04 09:52 | 53.18798 | 8.09578 | 19596 ft | 354 kts | 251° |
| 2026-05-04 09:53 | 53.18058 | 8.05652 | 19915 ft | 355 kts | 252° |
| 2026-05-04 09:53 | 53.17319 | 8.01717 | 19996 ft | 360 kts | 252° |
| 2026-05-04 09:53 | 53.16576 | 7.97760 | 20005 ft | 364 kts | 252° |
| 2026-05-04 09:53 | 53.15816 | 7.93729 | 20005 ft | 365 kts | 251° |
| 2026-05-04 09:54 | 53.15050 | 7.89689 | 20000 ft | 366 kts | 251° |
| 2026-05-04 09:54 | 53.14285 | 7.85657 | 20002 ft | 366 kts | 251° |
| 2026-05-04 09:54 | 53.13517 | 7.81616 | 20002 ft | 366 kts | 251° |
| 2026-05-04 09:54 | 53.12749 | 7.77580 | 20002 ft | 366 kts | 251° |
| 2026-05-04 09:55 | 53.11976 | 7.73545 | 20003 ft | 366 kts | 251° |
| 2026-05-04 09:55 | 53.11199 | 7.69518 | 20002 ft | 366 kts | 251° |
| 2026-05-04 09:55 | 53.10422 | 7.65497 | 20009 ft | 366 kts | 251° |
| 2026-05-04 09:55 | 53.09653 | 7.61525 | 20009 ft | 366 kts | 251° |
| 2026-05-04 09:56 | 53.08873 | 7.57485 | 20004 ft | 366 kts | 251° |
| 2026-05-04 09:56 | 53.08098 | 7.53460 | 20003 ft | 366 kts | 251° |
| 2026-05-04 09:56 | 53.07316 | 7.49422 | 20003 ft | 366 kts | 251° |
| 2026-05-04 09:56 | 53.06531 | 7.45385 | 20003 ft | 367 kts | 251° |
| 2026-05-04 09:57 | 53.05745 | 7.41356 | 20004 ft | 367 kts | 251° |
| 2026-05-04 09:57 | 53.04956 | 7.37332 | 20004 ft | 367 kts | 251° |
| 2026-05-04 09:57 | 53.04166 | 7.33307 | 20003 ft | 366 kts | 251° |
| 2026-05-04 09:57 | 53.03384 | 7.29329 | 20002 ft | 366 kts | 251° |
| 2026-05-04 09:58 | 53.02594 | 7.25314 | 19985 ft | 366 kts | 251° |
| 2026-05-04 09:58 | 53.01801 | 7.21292 | 19987 ft | 366 kts | 251° |
| 2026-05-04 09:58 | 53.00999 | 7.17270 | 19989 ft | 367 kts | 250° |
| 2026-05-04 10:00 | 52.95269 | 6.89233 | 19998 ft | 368 kts | 250° |
| 2026-05-04 10:00 | 52.94444 | 6.85225 | 19998 ft | 368 kts | 250° |
| 2026-05-04 10:02 | 52.88647 | 6.57240 | 20021 ft | 368 kts | 251° |
| 2026-05-04 10:04 | 52.82421 | 6.30462 | 18860 ft | 349 kts | 236° |
| 2026-05-04 10:04 | 52.81028 | 6.27171 | 18623 ft | 349 kts | 236° |
| 2026-05-04 10:04 | 52.79641 | 6.23879 | 18391 ft | 349 kts | 236° |
| 2026-05-04 10:04 | 52.78258 | 6.20589 | 18137 ft | 348 kts | 236° |
| 2026-05-04 10:05 | 52.76876 | 6.17297 | 17860 ft | 348 kts | 236° |
| 2026-05-04 10:05 | 52.75502 | 6.14025 | 17591 ft | 346 kts | 236° |
| 2026-05-04 10:05 | 52.74126 | 6.10767 | 17323 ft | 346 kts | 236° |
| 2026-05-04 10:05 | 52.72754 | 6.07522 | 17057 ft | 345 kts | 236° |
| 2026-05-04 10:06 | 52.71383 | 6.04285 | 16797 ft | 344 kts | 236° |
| 2026-05-04 10:06 | 52.70032 | 6.01095 | 16561 ft | 343 kts | 236° |
| 2026-05-04 10:06 | 52.68665 | 5.97869 | 16297 ft | 343 kts | 236° |
| 2026-05-04 10:08 | 52.60481 | 5.78693 | 14794 ft | 340 kts | 236° |
| 2026-05-04 10:08 | 52.59123 | 5.75521 | 14546 ft | 339 kts | 236° |
| 2026-05-04 10:08 | 52.57766 | 5.72354 | 14301 ft | 338 kts | 236° |
| 2026-05-04 10:08 | 52.56427 | 5.69239 | 14067 ft | 338 kts | 236° |
| 2026-05-04 10:09 | 52.55073 | 5.66092 | 13828 ft | 337 kts | 236° |
| 2026-05-04 10:09 | 52.53732 | 5.62951 | 13565 ft | 336 kts | 237° |
| 2026-05-04 10:09 | 52.52717 | 5.59525 | 13294 ft | 333 kts | 252° |
| 2026-05-04 10:09 | 52.52292 | 5.55802 | 13029 ft | 332 kts | 267° |
| 2026-05-04 10:10 | 52.52476 | 5.52029 | 12766 ft | 333 kts | 281° |
| 2026-05-04 10:10 | 52.53227 | 5.48442 | 12510 ft | 333 kts | 291° |
| 2026-05-04 10:10 | 52.54113 | 5.44926 | 12252 ft | 332 kts | 291° |
| 2026-05-04 10:10 | 52.54978 | 5.41467 | 11999 ft | 331 kts | 291° |
| 2026-05-04 10:11 | 52.55846 | 5.37969 | 11741 ft | 330 kts | 290° |
| 2026-05-04 10:11 | 52.56708 | 5.34476 | 11495 ft | 329 kts | 290° |
| 2026-05-04 10:11 | 52.57565 | 5.30998 | 11255 ft | 328 kts | 290° |
| 2026-05-04 10:11 | 52.58420 | 5.27525 | 10997 ft | 327 kts | 290° |
| 2026-05-04 10:12 | 52.59272 | 5.24068 | 10751 ft | 326 kts | 290° |
| 2026-05-04 10:12 | 52.60119 | 5.20616 | 10509 ft | 325 kts | 290° |
| 2026-05-04 10:12 | 52.60962 | 5.17177 | 10266 ft | 323 kts | 290° |
| 2026-05-04 10:12 | 52.61789 | 5.13808 | 10024 ft | 313 kts | 290° |
| 2026-05-04 10:13 | 52.62588 | 5.10555 | 9977 ft | 297 kts | 290° |
| 2026-05-04 10:13 | 52.63336 | 5.07503 | 10003 ft | 280 kts | 290° |
| 2026-05-04 10:13 | 52.64048 | 5.04589 | 10012 ft | 287 kts | 290° |
| 2026-05-04 10:13 | 52.64785 | 5.01559 | 10006 ft | 282 kts | 290° |
| 2026-05-04 10:14 | 52.65508 | 4.98581 | 9881 ft | 279 kts | 290° |
| 2026-05-04 10:14 | 52.66228 | 4.95609 | 9482 ft | 279 kts | 289° |
| 2026-05-04 10:16 | 52.68815 | 4.74686 | 6800 ft | 265 kts | 270° |
| 2026-05-04 10:16 | 52.68818 | 4.71652 | 6409 ft | 264 kts | 270° |
| 2026-05-04 10:16 | 52.68821 | 4.68638 | 5989 ft | 263 kts | 270° |
| 2026-05-04 10:16 | 52.68823 | 4.65634 | 5570 ft | 261 kts | 269° |
| 2026-05-04 10:17 | 52.68823 | 4.62649 | 5200 ft | 258 kts | 269° |
| 2026-05-04 10:17 | 52.68823 | 4.59764 | 5079 ft | 245 kts | 269° |
| 2026-05-04 10:19 | 52.61190 | 4.51358 | 3556 ft | 230 kts | 176° |
| 2026-05-04 10:19 | 52.59709 | 4.52115 | 3421 ft | 223 kts | 147° |
| 2026-05-04 10:19 | 52.58700 | 4.53950 | 3338 ft | 213 kts | 115° |
| 2026-05-04 10:19 | 52.58389 | 4.56197 | 3400 ft | 200 kts | 90° |
| 2026-05-04 10:20 | 52.58399 | 4.58467 | 3414 ft | 198 kts | 90° |
| 2026-05-04 10:20 | 52.58401 | 4.60718 | 3418 ft | 192 kts | 90° |
| 2026-05-04 10:20 | 52.58339 | 4.62815 | 3364 ft | 178 kts | 100° |
| 2026-05-04 10:20 | 52.58013 | 4.64687 | 3243 ft | 165 kts | 114° |
| 2026-05-04 10:21 | 52.57491 | 4.66245 | 3107 ft | 146 kts | 126° |
| 2026-05-04 10:21 | 52.56859 | 4.67495 | 2822 ft | 140 kts | 133° |
| 2026-05-04 10:21 | 52.56208 | 4.68678 | 2520 ft | 138 kts | 133° |
| 2026-05-04 10:21 | 52.55576 | 4.69830 | 2214 ft | 136 kts | 133° |
| 2026-05-04 10:22 | 52.54284 | 4.72062 | 2012 ft | 135 kts | 142° |
| 2026-05-04 10:22 | 52.53503 | 4.72904 | 2006 ft | 134 kts | 153° |
| 2026-05-04 10:22 | 52.52629 | 4.73470 | 2010 ft | 136 kts | 164° |
| 2026-05-04 10:23 | 52.51726 | 4.73918 | 2013 ft | 136 kts | 163° |
| 2026-05-04 10:23 | 52.50822 | 4.74369 | 2014 ft | 136 kts | 163° |
| 2026-05-04 10:25 | 52.44369 | 4.75025 | 2001 ft | 133 kts | 182° |
| 2026-05-04 10:25 | 52.43442 | 4.74944 | 1944 ft | 134 kts | 182° |
| 2026-05-04 10:25 | 52.42510 | 4.74861 | 1815 ft | 135 kts | 183° |
| 2026-05-04 10:25 | 52.41577 | 4.74776 | 1660 ft | 135 kts | 183° |
| 2026-05-04 10:26 | 52.40655 | 4.74692 | 1487 ft | 134 kts | 183° |
| 2026-05-04 10:26 | 52.39723 | 4.74607 | 1309 ft | 134 kts | 183° |
| 2026-05-04 10:26 | 52.38793 | 4.74522 | 1117 ft | 134 kts | 184° |
| 2026-05-04 10:26 | 52.37861 | 4.74436 | 948 ft | 134 kts | 183° |
| 2026-05-04 10:27 | 52.36931 | 4.74351 | 771 ft | 134 kts | 184° |
| 2026-05-04 10:27 | 52.36004 | 4.74266 | 596 ft | 133 kts | 184° |
| 2026-05-04 10:27 | 52.35079 | 4.74181 | 421 ft | 133 kts | 184° |
| 2026-05-04 10:27 | 52.34159 | 4.74097 | 244 ft | 132 kts | 184° |
| 2026-05-04 10:28 | 52.33245 | 4.74013 | 68 ft | 131 kts | 184° |
| 2026-05-04 10:28 | 52.32385 | 4.73935 | -2 ft | 99 kts | 183° |
| 2026-05-04 10:28 | 52.32003 | 4.73899 | -2 ft | 17 kts | 183° |
| 2026-05-04 10:28 | 52.31853 | 4.73893 | -1 ft | 30 kts | 180° |
| 2026-05-04 10:29 | 52.31659 | 4.73987 | -2 ft | 26 kts | 151° |
| 2026-05-04 10:29 | 52.31534 | 4.74090 | -1 ft | 15 kts | 155° |
| 2026-05-04 10:29 | 52.31528 | 4.74095 | -1 ft | 0 kts | 155° |
| 2026-05-04 10:30 | 52.31467 | 4.74135 | -1 ft | 21 kts | 165° |
| 2026-05-04 10:30 | 52.31327 | 4.74119 | -1 ft | 19 kts | 176° |
| 2026-05-04 10:30 | 52.31204 | 4.74120 | -1 ft | 14 kts | 186° |
| 2026-05-04 10:31 | 52.31096 | 4.74103 | -1 ft | 17 kts | 185° |
| 2026-05-04 10:31 | 52.30970 | 4.74088 | -1 ft | 19 kts | 180° |
| 2026-05-04 10:32 | 52.31375 | 4.74313 | -1 ft | 9 kts | 41° |
| 2026-05-04 10:33 | 52.31392 | 4.74405 | -1 ft | 8 kts | 84° |
| 2026-05-04 10:33 | 52.31396 | 4.74497 | -1 ft | 10 kts | 87° |
| 2026-05-04 10:33 | 52.31401 | 4.74684 | -1 ft | 20 kts | 87° |
| 2026-05-04 10:33 | 52.31408 | 4.74921 | -1 ft | 22 kts | 88° |
| 2026-05-04 10:34 | 52.31414 | 4.75168 | -1 ft | 19 kts | 85° |
| 2026-05-04 10:34 | 52.31424 | 4.75387 | -1 ft | 19 kts | 86° |
| 2026-05-04 10:34 | 52.31404 | 4.75466 | -1 ft | 5 kts | 155° |
| 2026-05-04 10:34 | 52.31374 | 4.75476 | -1 ft | 4 kts | 173° |
| 2026-05-04 10:35 | 52.31333 | 4.75478 | -1 ft | 10 kts | 176° |
| 2026-05-04 10:35 | 52.31271 | 4.75484 | -1 ft | 8 kts | 176° |
| 2026-05-04 10:35 | 52.31216 | 4.75489 | -1 ft | 7 kts | 176° |
| 2026-05-04 10:35 | 52.31167 | 4.75493 | -1 ft | 6 kts | 176° |
| 2026-05-04 10:36 | 52.31111 | 4.75485 | -1 ft | 10 kts | 207° |
| 2026-05-04 10:36 | 52.31068 | 4.75405 | -1 ft | 9 kts | 237° |
| 2026-05-04 10:36 | 52.31036 | 4.75382 | -1 ft | 5 kts | 165° |
| 2026-05-04 10:36 | 52.31014 | 4.75401 | -1 ft | 0 kts | 151° |
| 2026-05-04 10:37 | 52.31012 | 4.75403 | -1 ft | 1 kts | 148° |
| 2026-05-04 10:37 | 52.31009 | 4.75405 | -1 ft | 0 kts | 149° |
| 2026-05-04 10:37 | 52.31009 | 4.75406 | -1 ft | 0 kts | 149° |